TLPCTFFR

Guest
Details From TLPC - Castries/George F L Charles
To TFFR - Pointe a Pitre Le Raizet
Flight Number -
Tags generated
Created
Modified
Stats Distance 139 nm / 257 km
Max Altitude 9,600 ft / 2,926 m
Waypoints 3
Social Downloads 1
Likes 0
Share VATSIM

Download

Looking for another format? Having issues loading an existing format? Contact us
Advertisement - Login to hide

Notes

Basic altitude profile: - Ascent Rate: 2500ft/min - Ascent Speed: 250kts - Cruise Altitude: 35000ft - Cruise Speed: 420kts - Descent Rate: 1500ft/min - Descent Speed: 250kts Options: - Use NATs: yes - Use PACOTS: yes - Use low airways: yes - Use high airways: no

Route

TLPC DOM TFFR

ID Type Via Altitude (ft/m) Position (lat/lon) Dist (leg/tot) Name
O TLPC APT - 0 / 0 14.01970 / -60.99339 - / 0 nm Castries/George F L Charles
DOM NDB - 9,600 / 2,926 15.55094 / -61.29564 93 / 93 nm MELVILLE HALL NDB
O TFFR APT - 0 / 0 16.26531 / -61.53181 45 / 138 nm Pointe a Pitre Le Raizet

Altitude Profile

Advertisement - Login to hide

TLPC

Details ICAO TLPC (SLU)
Name Castries/George F L Charles
Region Saint Lucia
Timezone America/St_Lucia (UTC-4.0)
Stats Elevation 22 ft / 7 m (AMSL)
Location 14.019700° -60.993400°
Runways 1
Magnetic Variation 15.106° W

METAR

TLPC 161400Z 11010G22KT 9999 SCT025 29/21 Q1020 NOSIG

Decode

TAF

TAF TLPC 161100Z 1612/1712 10010G22KT 9999 SCT026

Decode

Departure Runways

ID Width Length Bearing (true/mag) Surface Threshold Overrun Markings Lighting
09 148 ft / 45 m 5,731 ft / 1,747 m 75.34° / 90.44° ASPHALT 400 ft / 122 m 0 ft / 0 m APP EDGE THRESHOLD
27 148 ft / 45 m 5,731 ft / 1,747 m 255.34° / 270.45° ASPHALT 925 ft / 282 m 0 ft / 0 m APP EDGE THRESHOLD

TFFR

Details ICAO TFFR (PTP)
Name Point a Pitre - Le Raizet
Region France (Guadeloupe, Martinique, Saint Barthélemy, Saint Martin)
Timezone America/Guadeloupe (UTC-4.0)
Stats Elevation 35 ft / 11 m (AMSL)
Location 16.265500° -61.533000°
Runways 1
Magnetic Variation 14.882° W

METAR

TFFR 161400Z AUTO 12013KT 080V140 9999 SCT044 SCT052 BKN250 28/19 Q1021

Decode

TAF

TAF TFFR 161029Z 1610/1706 CNL

Decode

Destination Runways

ID Width Length Bearing (true/mag) Surface Threshold Overrun Markings Lighting
12 148 ft / 45 m 10,673 ft / 3,253 m 100.95° / 115.83° ASPHALT 1,302 ft / 397 m 0 ft / 0 m PREC-APP EDGE THRESHOLD ALSF-I TDZ
30 148 ft / 45 m 10,673 ft / 3,253 m 280.96° / 295.84° ASPHALT 978 ft / 298 m 820 ft / 250 m PREC-APP EDGE THRESHOLD ALSF-I TDZ

Approach Navaids

Runway Type Ident Frequency Range Bearing (true/mag) Slope Elevation
12 GS PP 110.30 MHz 18 nm / 33 km 100.95° / 115.83 ° 3.20° 35 ft / 11 m (AMSL)
12 LOC-ILS PP 110.30 MHz 18 nm / 33 km 100.95° / 115.83 ° - 35 ft / 11 m (AMSL)

Popular Alternatives